createdAt,value
2019-04-06T00:02:10.806Z,25.60
2019-04-06T00:04:41.214Z,25.70
2019-04-06T00:07:11.363Z,25.70
2019-04-06T00:09:41.557Z,25.80
2019-04-06T00:12:11.843Z,25.80
2019-04-06T00:14:42.019Z,25.90
2019-04-06T00:17:12.370Z,25.90
2019-04-06T00:19:42.729Z,25.90
2019-04-06T00:22:12.958Z,26.00
2019-04-06T00:24:43.564Z,26.10
2019-04-06T00:27:13.822Z,26.10
2019-04-06T00:29:43.987Z,26.30
2019-04-06T00:32:15.664Z,26.40
2019-04-06T00:34:46.227Z,26.50
2019-04-06T00:37:16.643Z,26.60
2019-04-06T00:39:46.818Z,26.60
2019-04-06T00:42:17.220Z,26.70
2019-04-06T00:44:47.549Z,26.80
2019-04-06T00:47:18.010Z,26.90
2019-04-06T00:49:48.634Z,26.90
2019-04-06T00:54:12.478Z,26.90
2019-04-06T00:56:42.828Z,27.10
2019-04-06T00:59:13.183Z,27.20
2019-04-06T01:01:43.591Z,27.30
2019-04-06T01:04:14.312Z,27.30
2019-04-06T01:06:45.039Z,27.40
2019-04-06T01:09:15.885Z,27.40
2019-04-06T01:11:47.388Z,27.50
2019-04-06T01:14:18.153Z,27.60
2019-04-06T01:16:48.768Z,27.70
2019-04-06T01:19:19.176Z,27.70
2019-04-06T01:21:49.585Z,27.70
2019-04-06T01:24:19.993Z,27.70
2019-04-06T01:26:50.650Z,27.70
2019-04-06T01:29:20.846Z,27.80
2019-04-06T01:31:53.063Z,27.90
2019-04-06T01:34:23.792Z,27.90
2019-04-06T01:36:54.095Z,27.90
2019-04-06T01:39:24.620Z,27.90
2019-04-06T01:41:55.014Z,28.00
2019-04-06T01:44:25.354Z,28.10
2019-04-06T01:46:55.830Z,28.20
2019-04-06T01:49:26.424Z,28.30
2019-04-06T01:51:56.820Z,28.30
2019-04-06T01:54:27.978Z,28.50
2019-04-06T01:56:58.436Z,28.60
2019-04-06T01:59:28.695Z,28.60
2019-04-06T02:02:00.207Z,28.70
2019-04-06T02:04:30.571Z,28.80
2019-04-06T02:07:00.912Z,28.90
2019-04-06T02:09:31.133Z,28.90
2019-04-06T02:12:02.426Z,29.00
2019-04-06T02:14:33.074Z,29.20
2019-04-06T02:19:32.140Z,29.40
2019-04-06T02:22:02.373Z,29.50
2019-04-06T02:24:32.726Z,29.60
2019-04-06T02:27:03.328Z,29.70
2019-04-06T02:29:33.700Z,29.80
2019-04-06T02:32:05.504Z,29.90
2019-04-06T02:34:37.270Z,30.00
2019-04-06T02:37:08.811Z,30.20
2019-04-06T02:39:40.526Z,30.20
2019-04-06T02:42:12.251Z,30.30
2019-04-06T02:44:42.506Z,30.40
2019-04-06T02:47:13.122Z,30.40
2019-04-06T02:49:43.686Z,30.60
2019-04-06T02:52:13.913Z,30.60
2019-04-06T02:54:44.291Z,30.70
2019-04-06T02:57:14.642Z,30.80
2019-04-06T02:59:44.933Z,30.80
2019-04-06T03:02:15.308Z,30.90
2019-04-06T03:04:45.815Z,30.90
2019-04-06T03:07:16.374Z,31.00
2019-04-06T03:09:46.872Z,31.00
2019-04-06T03:12:17.264Z,31.10
2019-04-06T03:14:47.486Z,31.10
2019-04-06T03:17:17.944Z,31.20
2019-04-06T03:19:48.065Z,31.30
2019-04-06T03:22:18.532Z,31.30
2019-04-06T03:24:49.154Z,31.40
2019-04-06T03:27:19.530Z,31.40
2019-04-06T03:29:57.922Z,31.50
2019-04-06T03:32:21.693Z,31.60
2019-04-06T03:34:52.264Z,31.60
2019-04-06T03:37:38.749Z,31.70
2019-04-06T03:40:09.262Z,31.70
2019-04-06T03:42:39.644Z,31.80
2019-04-06T03:45:11.540Z,31.90
2019-04-06T03:47:42.281Z,32.00
2019-04-06T03:50:13.334Z,31.90
2019-04-06T03:52:43.973Z,31.90
2019-04-06T03:55:16.060Z,31.90
2019-04-06T03:57:46.702Z,31.80
2019-04-06T04:00:17.397Z,31.80
2019-04-06T04:02:47.945Z,31.80
2019-04-06T04:05:18.721Z,31.90
2019-04-06T04:07:49.050Z,32.00
2019-04-06T04:10:22.215Z,32.00
2019-04-06T04:12:52.382Z,32.10
2019-04-06T04:15:22.990Z,32.10
2019-04-06T04:17:53.647Z,32.20
2019-04-06T04:20:24.235Z,32.30
2019-04-06T04:22:54.575Z,32.30
2019-04-06T04:25:25.022Z,32.40
2019-04-06T04:27:55.591Z,32.40
2019-04-06T04:30:33.342Z,32.30
2019-04-06T04:32:58.345Z,32.30
2019-04-06T04:35:28.525Z,32.30
2019-04-06T04:37:58.818Z,32.30
2019-04-06T04:40:29.258Z,32.40
2019-04-06T04:45:30.005Z,32.60
2019-04-06T04:48:00.498Z,32.70
2019-04-06T04:50:30.927Z,32.70
2019-04-06T04:53:01.319Z,32.80
2019-04-06T04:55:31.568Z,32.90
2019-04-06T04:58:02.100Z,33.00
2019-04-06T05:00:32.341Z,33.10
2019-04-06T05:03:02.729Z,33.10
2019-04-06T05:05:32.925Z,33.10
2019-04-06T05:08:03.418Z,33.00
2019-04-06T05:10:33.887Z,33.00
2019-04-06T05:13:04.531Z,33.00
2019-04-06T05:15:37.619Z,33.10
2019-04-06T05:18:07.994Z,33.20
2019-04-06T05:20:38.202Z,33.30
2019-04-06T05:23:08.741Z,33.30
2019-04-06T05:25:39.113Z,33.40
2019-04-06T05:28:09.475Z,33.40
2019-04-06T05:30:39.642Z,33.50
2019-04-06T05:33:10.473Z,33.50
2019-04-06T05:35:41.027Z,33.50
2019-04-06T05:38:11.528Z,33.60
2019-04-06T05:40:41.750Z,33.60
2019-04-06T05:43:12.045Z,33.60
2019-04-06T05:45:42.597Z,33.70
2019-04-06T05:48:12.894Z,33.70
2019-04-06T05:50:43.263Z,33.80
2019-04-06T05:55:43.397Z,33.90
2019-04-06T05:58:13.941Z,33.90
2019-04-06T06:00:44.169Z,33.90
2019-04-06T06:03:15.524Z,33.90
2019-04-06T06:05:46.003Z,34.00
2019-04-06T06:08:16.695Z,34.10
2019-04-06T06:10:46.982Z,34.10
2019-04-06T06:13:17.302Z,34.10
2019-04-06T06:15:50.589Z,34.30
2019-04-06T06:18:26.460Z,34.40
2019-04-06T06:20:54.085Z,34.60
2019-04-06T06:23:24.549Z,34.70
2019-04-06T06:25:54.997Z,34.70
2019-04-06T06:28:25.203Z,34.60
2019-04-06T06:30:55.655Z,34.60
2019-04-06T06:33:25.822Z,34.50
2019-04-06T06:35:56.523Z,34.50
2019-04-06T06:38:26.907Z,34.50
2019-04-06T06:40:57.550Z,34.40
2019-04-06T06:43:27.727Z,34.40
2019-04-06T06:45:57.994Z,34.40
2019-04-06T06:48:28.313Z,34.40
2019-04-06T06:50:58.779Z,34.40
2019-04-06T06:53:29.139Z,34.50
2019-04-06T06:56:00.006Z,34.60
2019-04-06T06:58:30.413Z,34.60
2019-04-06T07:01:03.012Z,34.70
2019-04-06T07:03:32.117Z,34.80
2019-04-06T07:06:02.656Z,34.90
2019-04-06T07:08:32.994Z,35.00
2019-04-06T07:11:03.321Z,35.10
2019-04-06T07:13:33.882Z,35.10
2019-04-06T07:16:04.304Z,35.00
2019-04-06T07:18:34.909Z,35.00
2019-04-06T07:21:05.306Z,34.90
2019-04-06T07:23:35.561Z,34.80
2019-04-06T07:26:06.063Z,34.80
2019-04-06T07:28:38.089Z,34.90
2019-04-06T07:31:07.999Z,34.90
2019-04-06T07:33:38.382Z,35.00
2019-04-06T07:36:08.600Z,35.00
2019-04-06T07:38:39.028Z,35.10
2019-04-06T07:41:09.545Z,35.10
2019-04-06T07:43:39.836Z,35.20
2019-04-06T07:46:10.323Z,35.30
2019-04-06T07:48:40.654Z,35.30
2019-04-06T07:51:10.891Z,35.40
2019-04-06T07:53:41.277Z,35.40
2019-04-06T07:56:11.413Z,35.40
2019-04-06T07:58:48.603Z,35.40
2019-04-06T08:01:13.152Z,35.40
2019-04-06T08:03:43.621Z,35.50
2019-04-06T08:06:14.004Z,35.50
2019-04-06T08:08:44.574Z,35.50
2019-04-06T08:11:14.780Z,35.50
2019-04-06T08:13:45.146Z,35.50
2019-04-06T08:16:16.487Z,35.40
2019-04-06T08:18:47.974Z,35.40
2019-04-06T08:21:20.610Z,35.40
2019-04-06T08:23:51.797Z,35.40
2019-04-06T08:26:24.492Z,35.50
2019-04-06T08:29:01.886Z,35.50
2019-04-06T08:31:29.020Z,35.60
2019-04-06T08:33:59.738Z,35.70
2019-04-06T08:36:31.729Z,35.80
2019-04-06T08:39:03.525Z,35.80
2019-04-06T08:41:34.557Z,35.90
2019-04-06T08:44:06.394Z,35.90
2019-04-06T08:46:37.442Z,35.90
2019-04-06T08:49:09.254Z,35.90
2019-04-06T08:51:40.148Z,36.00
2019-04-06T08:54:10.768Z,36.00
2019-04-06T08:56:41.462Z,36.00
2019-04-06T08:59:13.541Z,36.00
2019-04-06T09:01:44.204Z,36.00
2019-04-06T09:04:14.792Z,36.00
2019-04-06T09:06:45.401Z,35.90
2019-04-06T09:09:15.876Z,35.90
2019-04-06T09:11:46.406Z,35.80
2019-04-06T09:14:16.938Z,35.90
2019-04-06T09:16:47.134Z,35.90
2019-04-06T09:19:17.999Z,35.90
2019-04-06T09:21:48.277Z,35.90
2019-04-06T09:24:18.694Z,35.90
2019-04-06T09:26:49.112Z,35.90
2019-04-06T09:29:23.605Z,35.90
2019-04-06T09:31:51.081Z,35.80
2019-04-06T09:34:21.535Z,35.80
2019-04-06T09:36:51.677Z,35.80
2019-04-06T09:39:21.997Z,35.80
2019-04-06T09:41:52.683Z,35.80
2019-04-06T09:44:24.273Z,35.80
2019-04-06T09:46:56.218Z,35.80
2019-04-06T09:49:27.791Z,35.70
2019-04-06T09:51:59.363Z,35.70
2019-04-06T09:54:30.998Z,35.70
2019-04-06T09:57:02.732Z,35.60
2019-04-06T09:59:36.788Z,35.70
2019-04-06T10:02:07.521Z,35.70
2019-04-06T10:04:39.105Z,35.60
2019-04-06T10:07:10.856Z,35.60
2019-04-06T10:09:42.767Z,35.60
2019-04-06T10:12:14.471Z,35.60
2019-04-06T10:14:46.106Z,35.50
2019-04-06T10:17:17.869Z,35.40
2019-04-06T10:19:49.347Z,35.40
2019-04-06T10:22:20.991Z,35.30
2019-04-06T10:24:52.526Z,35.20
2019-04-06T10:27:24.203Z,35.00
2019-04-06T10:29:55.984Z,34.90
2019-04-06T10:32:27.640Z,34.80
2019-04-06T10:34:59.165Z,34.70
2019-04-06T10:37:31.201Z,34.50
2019-04-06T10:40:02.830Z,34.40
2019-04-06T10:42:34.653Z,34.30
2019-04-06T10:45:07.427Z,34.20
2019-04-06T10:47:38.997Z,34.10
2019-04-06T10:50:10.505Z,34.00
2019-04-06T10:52:42.083Z,34.00
2019-04-06T10:55:13.765Z,33.90
2019-04-06T10:57:45.544Z,33.80
2019-04-06T11:00:17.390Z,33.70
2019-04-06T11:02:48.843Z,33.70
2019-04-06T11:05:20.705Z,33.60
2019-04-06T11:07:52.321Z,33.60
2019-04-06T11:10:24.165Z,33.50
2019-04-06T11:12:55.982Z,33.40
2019-04-06T11:15:27.536Z,33.30
2019-04-06T11:17:59.231Z,33.30
2019-04-06T11:20:30.731Z,33.20
2019-04-06T11:23:02.299Z,33.10
2019-04-06T11:25:34.247Z,33.10
2019-04-06T11:28:05.869Z,33.00
2019-04-06T11:30:37.675Z,32.90
2019-04-06T11:33:09.311Z,32.90
2019-04-06T11:35:40.807Z,32.80
2019-04-06T11:38:12.265Z,32.80
2019-04-06T11:40:44.015Z,32.80
2019-04-06T11:43:15.674Z,32.80
2019-04-06T11:45:47.141Z,32.70
2019-04-06T11:48:19.131Z,32.60
2019-04-06T11:50:50.899Z,32.50
2019-04-06T11:53:22.661Z,32.40
2019-04-06T11:55:54.420Z,32.40
2019-04-06T11:58:26.146Z,32.40
2019-04-06T12:00:57.697Z,32.30
2019-04-06T12:03:29.542Z,32.30
2019-04-06T12:06:01.120Z,32.30
2019-04-06T12:08:32.886Z,32.30
2019-04-06T12:11:04.424Z,32.20
2019-04-06T12:13:36.069Z,32.20
2019-04-06T12:16:08.031Z,32.20
2019-04-06T12:18:39.650Z,32.20
2019-04-06T12:21:11.146Z,32.10
2019-04-06T12:23:42.744Z,32.10
2019-04-06T12:26:14.278Z,32.00
2019-04-06T12:28:45.971Z,32.00
2019-04-06T12:31:17.546Z,32.00
2019-04-06T12:33:49.106Z,32.00
2019-04-06T12:36:20.799Z,31.90
2019-04-06T12:38:52.416Z,31.90
2019-04-06T12:41:24.093Z,31.80
2019-04-06T12:43:55.615Z,31.80
2019-04-06T12:46:27.462Z,31.70
2019-04-06T12:48:59.149Z,31.70
2019-04-06T12:51:30.677Z,31.70
2019-04-06T12:54:02.568Z,31.60
2019-04-06T12:56:34.284Z,31.60
2019-04-06T12:59:08.325Z,31.50
2019-04-06T13:01:39.756Z,31.50
2019-04-06T13:04:11.416Z,31.50
2019-04-06T13:06:42.829Z,31.50
2019-04-06T13:09:14.485Z,31.40
2019-04-06T13:11:46.267Z,31.40
2019-04-06T13:14:18.057Z,31.40
2019-04-06T13:16:49.858Z,31.40
2019-04-06T13:21:52.390Z,31.30
2019-04-06T13:24:24.049Z,31.30
2019-04-06T13:26:55.507Z,31.20
2019-04-06T13:29:27.242Z,31.20
2019-04-06T13:31:58.940Z,31.20
2019-04-06T13:34:30.647Z,31.20
2019-04-06T13:37:02.343Z,31.10
2019-04-06T13:39:33.989Z,31.10
2019-04-06T13:42:05.824Z,31.10
2019-04-06T13:44:37.474Z,31.10
2019-04-06T13:47:09.087Z,31.00
2019-04-06T13:49:40.728Z,31.00
2019-04-06T13:52:12.447Z,31.00
2019-04-06T13:54:44.076Z,30.90
2019-04-06T13:57:15.695Z,30.90
2019-04-06T13:59:47.304Z,30.90
2019-04-06T14:02:19.387Z,30.90
2019-04-06T14:04:50.983Z,30.80
2019-04-06T14:07:22.600Z,30.80
2019-04-06T14:09:54.522Z,30.80
2019-04-06T14:12:26.156Z,30.80
2019-04-06T14:14:57.804Z,30.80
2019-04-06T14:17:29.432Z,30.70
2019-04-06T14:20:01.254Z,30.70
2019-04-06T14:22:32.967Z,30.60
2019-04-06T14:25:05.033Z,30.60
2019-04-06T14:27:36.969Z,30.60
2019-04-06T14:30:10.333Z,30.50
2019-04-06T14:32:42.197Z,30.50
2019-04-06T14:35:13.782Z,30.50
2019-04-06T14:37:45.509Z,30.50
2019-04-06T14:40:17.366Z,30.40
2019-04-06T14:42:49.311Z,30.40
2019-04-06T14:45:21.119Z,30.30
2019-04-06T14:47:52.552Z,30.20
2019-04-06T14:50:24.169Z,30.20
2019-04-06T14:52:56.054Z,30.20
2019-04-06T14:55:27.743Z,30.10
2019-04-06T15:00:31.176Z,30.00
2019-04-06T15:03:02.754Z,30.00
2019-04-06T15:05:34.360Z,30.00
2019-04-06T15:08:05.943Z,29.90
2019-04-06T15:10:37.565Z,30.00
2019-04-06T15:13:09.172Z,30.00
2019-04-06T15:15:40.746Z,30.00
2019-04-06T15:18:12.638Z,30.00
2019-04-06T15:20:44.344Z,29.90
2019-04-06T15:23:16.026Z,29.80
2019-04-06T15:25:48.271Z,29.70
2019-04-06T15:28:19.810Z,29.70
2019-04-06T15:30:51.798Z,29.60
2019-04-06T15:33:23.447Z,29.50
2019-04-06T15:35:55.181Z,29.50
2019-04-06T15:38:27.073Z,29.40
2019-04-06T15:40:58.705Z,29.40
2019-04-06T15:43:30.194Z,29.40
2019-04-06T15:46:01.788Z,29.40
2019-04-06T15:48:39.060Z,29.40
2019-04-06T15:51:06.409Z,29.40
2019-04-06T15:53:37.997Z,29.30
2019-04-06T15:56:09.553Z,29.30
2019-04-06T15:58:41.117Z,29.30
2019-04-06T16:01:12.823Z,29.20
2019-04-06T16:03:44.313Z,29.20
2019-04-06T16:06:15.890Z,29.30
2019-04-06T16:08:47.395Z,29.30
2019-04-06T16:11:19.217Z,29.30
2019-04-06T16:13:51.024Z,29.30
2019-04-06T16:16:22.805Z,29.20
2019-04-06T16:18:54.360Z,29.20
2019-04-06T16:21:25.940Z,29.30
2019-04-06T16:24:03.560Z,29.20
2019-04-06T16:26:30.411Z,29.30
2019-04-06T16:29:02.309Z,29.30
2019-04-06T16:31:34.216Z,29.30
2019-04-06T16:34:06.139Z,29.30
2019-04-06T16:36:37.726Z,29.30
2019-04-06T16:39:10.378Z,29.30
2019-04-06T16:41:42.181Z,29.20
2019-04-06T16:44:14.003Z,29.30
2019-04-06T16:46:45.797Z,29.20
2019-04-06T16:49:17.678Z,29.20
2019-04-06T16:51:49.593Z,29.20
2019-04-06T16:54:21.500Z,29.20
2019-04-06T16:56:53.338Z,29.20
2019-04-06T16:59:25.005Z,29.20
2019-04-06T17:01:56.464Z,29.20
2019-04-06T17:04:28.146Z,29.10
2019-04-06T17:06:59.641Z,29.10
2019-04-06T17:09:31.513Z,29.10
2019-04-06T17:12:03.333Z,29.00
2019-04-06T17:14:34.914Z,29.00
2019-04-06T17:17:06.947Z,28.90
2019-04-06T17:19:38.412Z,28.90
2019-04-06T17:22:10.072Z,28.90
2019-04-06T17:24:41.547Z,28.90
2019-04-06T17:27:13.179Z,28.90
2019-04-06T17:29:44.918Z,28.90
2019-04-06T17:32:16.591Z,28.90
2019-04-06T17:34:53.433Z,28.90
2019-04-06T17:37:21.084Z,28.90
2019-04-06T17:39:52.732Z,28.90
2019-04-06T17:42:24.618Z,28.90
2019-04-06T17:44:56.575Z,28.90
2019-04-06T17:47:28.131Z,28.90
2019-04-06T17:49:59.614Z,28.80
2019-04-06T17:52:31.115Z,28.80
2019-04-06T17:55:02.779Z,28.80
2019-04-06T17:57:34.343Z,28.80
2019-04-06T18:00:07.346Z,28.80
2019-04-06T18:02:47.865Z,28.80
2019-04-06T18:05:12.549Z,28.80
2019-04-06T18:07:44.970Z,28.80
2019-04-06T18:10:17.280Z,28.70
2019-04-06T18:12:50.118Z,28.70
2019-04-06T18:15:20.227Z,28.60
2019-04-06T18:17:50.718Z,28.60
2019-04-06T18:20:21.113Z,28.60
2019-04-06T18:22:51.393Z,28.60
2019-04-06T18:25:21.965Z,28.60
2019-04-06T18:27:52.625Z,28.50
2019-04-06T18:30:23.030Z,28.50
2019-04-06T18:33:01.241Z,28.40
2019-04-06T18:35:26.127Z,28.40
2019-04-06T18:37:57.829Z,28.40
2019-04-06T18:40:29.334Z,28.40
2019-04-06T18:42:59.821Z,28.40
2019-04-06T18:45:31.260Z,28.30
2019-04-06T18:48:01.689Z,28.30
2019-04-06T18:50:36.516Z,28.20
2019-04-06T18:53:03.786Z,28.10
2019-04-06T18:55:34.221Z,28.10
2019-04-06T18:58:12.236Z,28.00
2019-04-06T19:00:36.070Z,28.00
2019-04-06T19:03:13.904Z,28.00
2019-04-06T19:05:38.102Z,28.00
2019-04-06T19:08:08.476Z,27.90
2019-04-06T19:10:39.972Z,27.90
2019-04-06T19:13:10.362Z,27.90
2019-04-06T19:15:41.105Z,27.80
2019-04-06T19:18:11.395Z,27.80
2019-04-06T19:20:41.782Z,27.80
2019-04-06T19:23:12.070Z,27.90
2019-04-06T19:25:43.178Z,27.90
2019-04-06T19:28:13.689Z,27.90
2019-04-06T19:30:44.437Z,28.00
2019-04-06T19:33:23.795Z,28.00
2019-04-06T19:35:46.378Z,28.00
2019-04-06T19:38:16.810Z,28.00
2019-04-06T19:40:47.707Z,28.00
2019-04-06T19:43:18.544Z,28.00
2019-04-06T19:45:49.007Z,28.00
2019-04-06T19:48:19.995Z,28.00
2019-04-06T19:50:50.366Z,27.90
2019-04-06T19:53:20.579Z,27.90
2019-04-06T19:55:50.954Z,27.90
2019-04-06T19:58:21.577Z,27.90
2019-04-06T20:00:52.190Z,27.80
2019-04-06T20:03:33.697Z,27.90
2019-04-06T20:05:54.230Z,27.80
2019-04-06T20:08:24.392Z,27.80
2019-04-06T20:10:54.636Z,27.80
2019-04-06T20:13:25.007Z,27.80
2019-04-06T20:15:55.532Z,27.70
2019-04-06T20:18:26.256Z,27.60
2019-04-06T20:20:56.569Z,27.60
2019-04-06T20:23:27.100Z,27.60
2019-04-06T20:25:57.754Z,27.60
2019-04-06T20:28:28.233Z,27.60
2019-04-06T20:30:58.752Z,27.60
2019-04-06T20:33:29.486Z,27.60
2019-04-06T20:35:59.830Z,27.60
2019-04-06T20:38:31.201Z,27.60
2019-04-06T20:41:01.594Z,27.60
2019-04-06T20:43:32.323Z,27.50
2019-04-06T20:46:02.836Z,27.50
2019-04-06T20:48:33.661Z,27.40
2019-04-06T20:51:04.341Z,27.40
2019-04-06T20:53:35.345Z,27.40
2019-04-06T20:56:06.366Z,27.40
2019-04-06T20:58:36.484Z,27.40
2019-04-06T21:01:07.038Z,27.40
2019-04-06T21:03:37.318Z,27.30
2019-04-06T21:06:08.592Z,27.30
2019-04-06T21:08:39.051Z,27.30
2019-04-06T21:11:09.368Z,27.30
2019-04-06T21:13:40.745Z,27.30
2019-04-06T21:16:11.257Z,27.30
2019-04-06T21:18:41.871Z,27.30
2019-04-06T21:21:12.128Z,27.30
2019-04-06T21:23:42.918Z,27.30
2019-04-06T21:26:13.504Z,27.30
2019-04-06T21:28:43.834Z,27.20
2019-04-06T21:31:14.203Z,27.10
2019-04-06T21:33:45.827Z,27.10
2019-04-06T21:36:16.266Z,27.10
2019-04-06T21:38:46.665Z,27.10
2019-04-06T21:41:17.034Z,27.10
2019-04-06T21:43:47.676Z,27.10
2019-04-06T21:46:18.213Z,27.10
2019-04-06T21:48:49.007Z,27.20
2019-04-06T21:51:19.367Z,27.20
2019-04-06T21:53:50.358Z,27.20
2019-04-06T21:56:20.653Z,27.20
2019-04-06T21:58:51.644Z,27.20
2019-04-06T22:01:23.035Z,27.20
2019-04-06T22:03:53.862Z,27.20
2019-04-06T22:06:25.465Z,27.20
2019-04-06T22:08:55.816Z,27.20
2019-04-06T22:11:26.537Z,27.10
2019-04-06T22:13:57.058Z,27.10
2019-04-06T22:16:27.344Z,27.10
2019-04-06T22:18:57.989Z,27.10
2019-04-06T22:21:28.301Z,27.10
2019-04-06T22:23:59.124Z,27.20
2019-04-06T22:26:29.452Z,27.20
2019-04-06T22:28:59.469Z,27.20
2019-04-06T22:31:30.545Z,27.30
2019-04-06T22:34:00.832Z,27.30
2019-04-06T22:36:31.276Z,27.30
2019-04-06T22:39:01.747Z,27.30
2019-04-06T22:41:32.335Z,27.30
2019-04-06T22:44:02.991Z,27.30
2019-04-06T22:46:33.726Z,27.30
2019-04-06T22:49:04.094Z,27.30
2019-04-06T22:51:34.512Z,27.30
2019-04-06T22:54:05.194Z,27.30
2019-04-06T22:56:35.477Z,27.30
2019-04-06T22:59:06.313Z,27.30
2019-04-06T23:01:39.238Z,27.30
2019-04-06T23:04:10.716Z,27.30
2019-04-06T23:06:42.511Z,27.30
2019-04-06T23:09:13.421Z,27.30
2019-04-06T23:11:44.706Z,27.20
2019-04-06T23:14:15.643Z,27.20
2019-04-06T23:16:46.174Z,27.20
2019-04-06T23:19:16.526Z,27.20
2019-04-06T23:21:46.779Z,27.30
2019-04-06T23:24:16.977Z,27.30
2019-04-06T23:26:47.466Z,27.20
2019-04-06T23:29:17.865Z,27.30
2019-04-06T23:31:48.389Z,27.20
2019-04-06T23:34:19.136Z,27.20
2019-04-06T23:36:49.951Z,27.20
2019-04-06T23:39:20.149Z,27.20
2019-04-06T23:41:50.678Z,27.20
2019-04-06T23:44:21.216Z,27.30
2019-04-06T23:46:51.760Z,27.30
2019-04-06T23:49:22.375Z,27.30
2019-04-06T23:51:53.267Z,27.30
2019-04-06T23:54:23.895Z,27.30
2019-04-06T23:56:54.286Z,27.30
2019-04-06T23:59:24.472Z,27.40
